sensor_id;sensor_type;location;lat;lon;timestamp;P1;durP1;ratioP1;P2;durP2;ratioP2
31978;SDS011;18502;43.574;1.276;2022-07-18T00:02:20;2.80;;;2.60;;
31978;SDS011;18502;43.574;1.276;2022-07-18T00:04:46;3.55;;;2.70;;
31978;SDS011;18502;43.574;1.276;2022-07-18T00:07:12;5.88;;;3.22;;
31978;SDS011;18502;43.574;1.276;2022-07-18T00:09:38;4.80;;;2.65;;
31978;SDS011;18502;43.574;1.276;2022-07-18T00:12:05;6.47;;;2.72;;
31978;SDS011;18502;43.574;1.276;2022-07-18T00:14:32;3.20;;;2.90;;
31978;SDS011;18502;43.574;1.276;2022-07-18T00:16:58;5.38;;;3.05;;
31978;SDS011;18502;43.574;1.276;2022-07-18T00:19:24;3.88;;;2.58;;
31978;SDS011;18502;43.574;1.276;2022-07-18T00:21:50;4.97;;;3.10;;
31978;SDS011;18502;43.574;1.276;2022-07-18T00:24:16;5.65;;;2.92;;
31978;SDS011;18502;43.574;1.276;2022-07-18T00:26:42;4.53;;;3.35;;
31978;SDS011;18502;43.574;1.276;2022-07-18T00:29:08;4.15;;;2.72;;
31978;SDS011;18502;43.574;1.276;2022-07-18T00:31:34;5.88;;;2.63;;
31978;SDS011;18502;43.574;1.276;2022-07-18T00:34:00;3.53;;;3.20;;
31978;SDS011;18502;43.574;1.276;2022-07-18T00:36:27;6.22;;;2.83;;
31978;SDS011;18502;43.574;1.276;2022-07-18T00:38:54;4.53;;;2.95;;
31978;SDS011;18502;43.574;1.276;2022-07-18T00:41:20;5.45;;;3.10;;
31978;SDS011;18502;43.574;1.276;2022-07-18T00:43:46;3.33;;;3.03;;
31978;SDS011;18502;43.574;1.276;2022-07-18T00:46:12;6.55;;;2.35;;
31978;SDS011;18502;43.574;1.276;2022-07-18T00:48:38;6.57;;;2.92;;
31978;SDS011;18502;43.574;1.276;2022-07-18T00:51:06;4.97;;;2.63;;
31978;SDS011;18502;43.574;1.276;2022-07-18T00:53:32;3.30;;;2.92;;
31978;SDS011;18502;43.574;1.276;2022-07-18T00:55:58;3.47;;;3.15;;
31978;SDS011;18502;43.574;1.276;2022-07-18T00:58:26;4.15;;;2.80;;
31978;SDS011;18502;43.574;1.276;2022-07-18T01:00:52;3.33;;;3.03;;
31978;SDS011;18502;43.574;1.276;2022-07-18T01:03:36;4.25;;;2.83;;
31978;SDS011;18502;43.574;1.276;2022-07-18T01:06:02;4.88;;;2.63;;
31978;SDS011;18502;43.574;1.276;2022-07-18T01:08:28;3.45;;;2.22;;
31978;SDS011;18502;43.574;1.276;2022-07-18T01:10:54;5.55;;;3.50;;
31978;SDS011;18502;43.574;1.276;2022-07-18T01:13:20;3.92;;;2.75;;
31978;SDS011;18502;43.574;1.276;2022-07-18T01:15:47;3.83;;;2.63;;
31978;SDS011;18502;43.574;1.276;2022-07-18T01:18:12;3.30;;;2.67;;
31978;SDS011;18502;43.574;1.276;2022-07-18T01:20:38;3.63;;;2.63;;
31978;SDS011;18502;43.574;1.276;2022-07-18T01:23:04;2.67;;;2.47;;
31978;SDS011;18502;43.574;1.276;2022-07-18T01:25:30;4.85;;;2.63;;
31978;SDS011;18502;43.574;1.276;2022-07-18T01:27:56;3.92;;;2.55;;
31978;SDS011;18502;43.574;1.276;2022-07-18T01:30:23;3.25;;;2.70;;
31978;SDS011;18502;43.574;1.276;2022-07-18T01:32:58;6.30;;;2.70;;
31978;SDS011;18502;43.574;1.276;2022-07-18T01:35:27;5.53;;;2.90;;
31978;SDS011;18502;43.574;1.276;2022-07-18T01:37:54;4.40;;;2.40;;
31978;SDS011;18502;43.574;1.276;2022-07-18T01:40:22;5.65;;;3.03;;
31978;SDS011;18502;43.574;1.276;2022-07-18T01:42:48;2.65;;;2.45;;
31978;SDS011;18502;43.574;1.276;2022-07-18T01:45:15;4.40;;;2.75;;
31978;SDS011;18502;43.574;1.276;2022-07-18T01:47:41;4.18;;;2.58;;
31978;SDS011;18502;43.574;1.276;2022-07-18T01:50:08;3.38;;;2.88;;
31978;SDS011;18502;43.574;1.276;2022-07-18T01:52:35;4.40;;;2.95;;
31978;SDS011;18502;43.574;1.276;2022-07-18T01:55:01;6.10;;;3.13;;
31978;SDS011;18502;43.574;1.276;2022-07-18T01:57:26;6.72;;;2.85;;
31978;SDS011;18502;43.574;1.276;2022-07-18T01:59:52;4.85;;;3.08;;
31978;SDS011;18502;43.574;1.276;2022-07-18T02:02:18;5.43;;;3.40;;
31978;SDS011;18502;43.574;1.276;2022-07-18T02:04:43;3.20;;;2.90;;
31978;SDS011;18502;43.574;1.276;2022-07-18T02:07:28;4.50;;;2.90;;
31978;SDS011;18502;43.574;1.276;2022-07-18T02:09:56;4.28;;;3.15;;
31978;SDS011;18502;43.574;1.276;2022-07-18T02:12:22;5.10;;;3.30;;
31978;SDS011;18502;43.574;1.276;2022-07-18T02:14:48;4.43;;;3.15;;
31978;SDS011;18502;43.574;1.276;2022-07-18T02:17:14;5.88;;;3.03;;
31978;SDS011;18502;43.574;1.276;2022-07-18T02:19:39;3.30;;;3.00;;
31978;SDS011;18502;43.574;1.276;2022-07-18T02:22:05;3.67;;;3.15;;
31978;SDS011;18502;43.574;1.276;2022-07-18T02:24:31;3.08;;;2.78;;
31978;SDS011;18502;43.574;1.276;2022-07-18T02:26:57;3.95;;;3.35;;
31978;SDS011;18502;43.574;1.276;2022-07-18T02:29:23;6.75;;;3.33;;
31978;SDS011;18502;43.574;1.276;2022-07-18T02:31:49;5.38;;;3.30;;
31978;SDS011;18502;43.574;1.276;2022-07-18T02:34:15;3.63;;;3.33;;
31978;SDS011;18502;43.574;1.276;2022-07-18T02:36:41;3.42;;;2.95;;
31978;SDS011;18502;43.574;1.276;2022-07-18T02:39:07;6.18;;;3.33;;
31978;SDS011;18502;43.574;1.276;2022-07-18T02:41:33;7.63;;;3.65;;
31978;SDS011;18502;43.574;1.276;2022-07-18T02:43:59;3.05;;;2.60;;
31978;SDS011;18502;43.574;1.276;2022-07-18T02:46:25;3.75;;;3.00;;
31978;SDS011;18502;43.574;1.276;2022-07-18T02:48:51;3.08;;;2.70;;
31978;SDS011;18502;43.574;1.276;2022-07-18T02:51:18;4.78;;;3.03;;
31978;SDS011;18502;43.574;1.276;2022-07-18T02:53:44;6.40;;;3.47;;
31978;SDS011;18502;43.574;1.276;2022-07-18T02:56:09;4.90;;;3.53;;
31978;SDS011;18502;43.574;1.276;2022-07-18T02:58:35;4.03;;;3.15;;
31978;SDS011;18502;43.574;1.276;2022-07-18T03:01:01;3.53;;;3.10;;
31978;SDS011;18502;43.574;1.276;2022-07-18T03:03:26;4.97;;;3.63;;
31978;SDS011;18502;43.574;1.276;2022-07-18T03:05:52;6.40;;;3.20;;
31978;SDS011;18502;43.574;1.276;2022-07-18T03:08:18;5.25;;;3.00;;
31978;SDS011;18502;43.574;1.276;2022-07-18T03:10:44;3.53;;;3.22;;
31978;SDS011;18502;43.574;1.276;2022-07-18T03:13:09;3.75;;;3.15;;
31978;SDS011;18502;43.574;1.276;2022-07-18T03:15:36;6.85;;;3.20;;
31978;SDS011;18502;43.574;1.276;2022-07-18T03:18:02;3.15;;;2.95;;
31978;SDS011;18502;43.574;1.276;2022-07-18T03:20:28;3.80;;;3.30;;
31978;SDS011;18502;43.574;1.276;2022-07-18T03:22:54;4.78;;;3.17;;
31978;SDS011;18502;43.574;1.276;2022-07-18T03:25:19;4.30;;;3.25;;
31978;SDS011;18502;43.574;1.276;2022-07-18T03:27:45;7.07;;;3.20;;
31978;SDS011;18502;43.574;1.276;2022-07-18T03:30:11;4.15;;;3.05;;
31978;SDS011;18502;43.574;1.276;2022-07-18T03:32:37;3.33;;;3.03;;
31978;SDS011;18502;43.574;1.276;2022-07-18T03:35:03;4.63;;;3.50;;
31978;SDS011;18502;43.574;1.276;2022-07-18T03:37:29;3.63;;;3.33;;
31978;SDS011;18502;43.574;1.276;2022-07-18T03:39:55;4.72;;;2.88;;
31978;SDS011;18502;43.574;1.276;2022-07-18T03:42:20;3.35;;;3.05;;
31978;SDS011;18502;43.574;1.276;2022-07-18T03:44:46;3.47;;;3.22;;
31978;SDS011;18502;43.574;1.276;2022-07-18T03:47:12;6.32;;;3.65;;
31978;SDS011;18502;43.574;1.276;2022-07-18T03:49:38;3.78;;;2.85;;
31978;SDS011;18502;43.574;1.276;2022-07-18T03:52:03;3.75;;;3.40;;
31978;SDS011;18502;43.574;1.276;2022-07-18T03:54:29;3.83;;;3.47;;
31978;SDS011;18502;43.574;1.276;2022-07-18T03:56:55;3.83;;;3.22;;
31978;SDS011;18502;43.574;1.276;2022-07-18T03:59:21;4.50;;;3.38;;
31978;SDS011;18502;43.574;1.276;2022-07-18T04:01:46;3.58;;;3.28;;
31978;SDS011;18502;43.574;1.276;2022-07-18T04:04:12;5.70;;;4.47;;
31978;SDS011;18502;43.574;1.276;2022-07-18T04:06:38;5.82;;;4.05;;
31978;SDS011;18502;43.574;1.276;2022-07-18T04:09:03;7.80;;;3.80;;
31978;SDS011;18502;43.574;1.276;2022-07-18T04:11:30;4.47;;;3.53;;
31978;SDS011;18502;43.574;1.276;2022-07-18T04:13:55;5.70;;;3.30;;
31978;SDS011;18502;43.574;1.276;2022-07-18T04:16:21;9.73;;;3.88;;
31978;SDS011;18502;43.574;1.276;2022-07-18T04:18:47;5.40;;;3.83;;
31978;SDS011;18502;43.574;1.276;2022-07-18T04:21:13;4.38;;;3.97;;
31978;SDS011;18502;43.574;1.276;2022-07-18T04:23:40;8.48;;;3.80;;
31978;SDS011;18502;43.574;1.276;2022-07-18T04:26:06;4.82;;;3.92;;
31978;SDS011;18502;43.574;1.276;2022-07-18T04:28:32;13.70;;;4.88;;
31978;SDS011;18502;43.574;1.276;2022-07-18T04:30:57;11.35;;;4.18;;
31978;SDS011;18502;43.574;1.276;2022-07-18T04:33:23;7.03;;;4.03;;
31978;SDS011;18502;43.574;1.276;2022-07-18T04:35:49;4.38;;;3.60;;
31978;SDS011;18502;43.574;1.276;2022-07-18T04:38:15;5.00;;;3.60;;
31978;SDS011;18502;43.574;1.276;2022-07-18T04:40:41;9.93;;;3.65;;
31978;SDS011;18502;43.574;1.276;2022-07-18T04:43:06;5.28;;;3.72;;
31978;SDS011;18502;43.574;1.276;2022-07-18T04:45:33;5.28;;;4.25;;
31978;SDS011;18502;43.574;1.276;2022-07-18T04:48:00;4.95;;;4.03;;
31978;SDS011;18502;43.574;1.276;2022-07-18T04:50:26;5.40;;;4.32;;
31978;SDS011;18502;43.574;1.276;2022-07-18T04:52:54;5.13;;;4.20;;
31978;SDS011;18502;43.574;1.276;2022-07-18T04:55:21;8.32;;;4.32;;
31978;SDS011;18502;43.574;1.276;2022-07-18T04:57:47;6.13;;;4.20;;
31978;SDS011;18502;43.574;1.276;2022-07-18T05:00:14;10.68;;;4.15;;
31978;SDS011;18502;43.574;1.276;2022-07-18T05:02:42;5.68;;;4.07;;
31978;SDS011;18502;43.574;1.276;2022-07-18T05:05:09;6.50;;;3.97;;
31978;SDS011;18502;43.574;1.276;2022-07-18T05:07:36;5.65;;;4.15;;
31978;SDS011;18502;43.574;1.276;2022-07-18T05:10:03;6.65;;;4.38;;
31978;SDS011;18502;43.574;1.276;2022-07-18T05:12:32;6.53;;;4.57;;
31978;SDS011;18502;43.574;1.276;2022-07-18T05:14:59;5.40;;;4.03;;
31978;SDS011;18502;43.574;1.276;2022-07-18T05:17:24;4.53;;;4.13;;
31978;SDS011;18502;43.574;1.276;2022-07-18T05:19:50;7.30;;;3.90;;
31978;SDS011;18502;43.574;1.276;2022-07-18T05:22:16;5.43;;;4.10;;
31978;SDS011;18502;43.574;1.276;2022-07-18T05:24:41;5.32;;;4.55;;
31978;SDS011;18502;43.574;1.276;2022-07-18T05:27:07;10.20;;;5.43;;
31978;SDS011;18502;43.574;1.276;2022-07-18T05:29:33;8.50;;;4.60;;
31978;SDS011;18502;43.574;1.276;2022-07-18T05:31:58;5.13;;;4.22;;
31978;SDS011;18502;43.574;1.276;2022-07-18T05:34:24;6.63;;;4.53;;
31978;SDS011;18502;43.574;1.276;2022-07-18T05:36:50;6.93;;;4.60;;
31978;SDS011;18502;43.574;1.276;2022-07-18T05:39:16;8.77;;;4.57;;
31978;SDS011;18502;43.574;1.276;2022-07-18T05:41:41;9.85;;;4.93;;
31978;SDS011;18502;43.574;1.276;2022-07-18T05:44:07;6.93;;;4.20;;
31978;SDS011;18502;43.574;1.276;2022-07-18T05:46:33;10.02;;;4.45;;
31978;SDS011;18502;43.574;1.276;2022-07-18T05:48:58;7.90;;;4.60;;
31978;SDS011;18502;43.574;1.276;2022-07-18T05:51:24;6.30;;;4.75;;
31978;SDS011;18502;43.574;1.276;2022-07-18T05:53:49;9.18;;;4.50;;
31978;SDS011;18502;43.574;1.276;2022-07-18T05:56:15;7.38;;;4.18;;
31978;SDS011;18502;43.574;1.276;2022-07-18T05:58:41;5.80;;;4.55;;
31978;SDS011;18502;43.574;1.276;2022-07-18T06:01:07;5.63;;;4.57;;
31978;SDS011;18502;43.574;1.276;2022-07-18T06:03:32;9.45;;;5.05;;
31978;SDS011;18502;43.574;1.276;2022-07-18T06:05:58;5.65;;;3.78;;
31978;SDS011;18502;43.574;1.276;2022-07-18T06:08:24;7.68;;;4.32;;
31978;SDS011;18502;43.574;1.276;2022-07-18T06:10:49;9.90;;;4.60;;
31978;SDS011;18502;43.574;1.276;2022-07-18T06:13:15;12.95;;;4.85;;
31978;SDS011;18502;43.574;1.276;2022-07-18T06:15:41;6.93;;;4.35;;
31978;SDS011;18502;43.574;1.276;2022-07-18T06:18:07;8.48;;;4.22;;
31978;SDS011;18502;43.574;1.276;2022-07-18T06:20:32;8.95;;;4.22;;
31978;SDS011;18502;43.574;1.276;2022-07-18T06:22:58;6.65;;;4.55;;
31978;SDS011;18502;43.574;1.276;2022-07-18T06:25:24;6.05;;;3.70;;
31978;SDS011;18502;43.574;1.276;2022-07-18T06:27:49;5.72;;;3.92;;
31978;SDS011;18502;43.574;1.276;2022-07-18T06:30:15;8.73;;;4.05;;
31978;SDS011;18502;43.574;1.276;2022-07-18T06:32:41;6.05;;;4.30;;
31978;SDS011;18502;43.574;1.276;2022-07-18T06:35:07;7.70;;;4.35;;
31978;SDS011;18502;43.574;1.276;2022-07-18T06:37:33;6.50;;;3.70;;
31978;SDS011;18502;43.574;1.276;2022-07-18T06:40:00;6.80;;;3.53;;
31978;SDS011;18502;43.574;1.276;2022-07-18T06:42:25;8.18;;;4.03;;
31978;SDS011;18502;43.574;1.276;2022-07-18T06:44:51;4.90;;;3.67;;
31978;SDS011;18502;43.574;1.276;2022-07-18T06:47:17;3.83;;;3.50;;
31978;SDS011;18502;43.574;1.276;2022-07-18T06:49:42;10.25;;;3.60;;
31978;SDS011;18502;43.574;1.276;2022-07-18T06:52:08;10.38;;;4.00;;
31978;SDS011;18502;43.574;1.276;2022-07-18T06:54:36;8.80;;;4.13;;
31978;SDS011;18502;43.574;1.276;2022-07-18T06:57:04;5.03;;;3.58;;
31978;SDS011;18502;43.574;1.276;2022-07-18T06:59:32;9.25;;;3.50;;
31978;SDS011;18502;43.574;1.276;2022-07-18T07:01:58;8.30;;;3.38;;
31978;SDS011;18502;43.574;1.276;2022-07-18T07:04:24;5.22;;;2.88;;
31978;SDS011;18502;43.574;1.276;2022-07-18T07:06:50;8.30;;;3.33;;
31978;SDS011;18502;43.574;1.276;2022-07-18T07:09:17;7.45;;;3.63;;
31978;SDS011;18502;43.574;1.276;2022-07-18T07:11:42;6.72;;;3.15;;
31978;SDS011;18502;43.574;1.276;2022-07-18T07:14:08;6.55;;;3.45;;
31978;SDS011;18502;43.574;1.276;2022-07-18T07:16:34;4.25;;;3.30;;
31978;SDS011;18502;43.574;1.276;2022-07-18T07:18:59;8.13;;;3.33;;
31978;SDS011;18502;43.574;1.276;2022-07-18T07:21:25;7.07;;;3.13;;
31978;SDS011;18502;43.574;1.276;2022-07-18T07:23:51;5.63;;;3.33;;
31978;SDS011;18502;43.574;1.276;2022-07-18T07:26:17;6.18;;;3.10;;
31978;SDS011;18502;43.574;1.276;2022-07-18T07:28:42;5.68;;;3.20;;
31978;SDS011;18502;43.574;1.276;2022-07-18T07:31:08;5.55;;;2.97;;
31978;SDS011;18502;43.574;1.276;2022-07-18T07:33:34;5.38;;;3.17;;
31978;SDS011;18502;43.574;1.276;2022-07-18T07:36:00;8.73;;;3.72;;
31978;SDS011;18502;43.574;1.276;2022-07-18T07:38:26;5.35;;;3.03;;
31978;SDS011;18502;43.574;1.276;2022-07-18T07:40:54;5.40;;;3.60;;
31978;SDS011;18502;43.574;1.276;2022-07-18T07:43:20;5.70;;;3.13;;
31978;SDS011;18502;43.574;1.276;2022-07-18T07:45:47;8.82;;;3.40;;
31978;SDS011;18502;43.574;1.276;2022-07-18T07:48:14;8.02;;;4.50;;
31978;SDS011;18502;43.574;1.276;2022-07-18T07:50:40;8.57;;;3.10;;
31978;SDS011;18502;43.574;1.276;2022-07-18T07:53:06;8.15;;;3.15;;
31978;SDS011;18502;43.574;1.276;2022-07-18T07:55:32;4.88;;;3.35;;
31978;SDS011;18502;43.574;1.276;2022-07-18T07:57:58;9.13;;;3.35;;
31978;SDS011;18502;43.574;1.276;2022-07-18T08:00:24;9.80;;;3.33;;
31978;SDS011;18502;43.574;1.276;2022-07-18T08:02:56;4.32;;;3.00;;
31978;SDS011;18502;43.574;1.276;2022-07-18T08:05:23;4.03;;;3.25;;
31978;SDS011;18502;43.574;1.276;2022-07-18T08:07:49;8.85;;;2.95;;
31978;SDS011;18502;43.574;1.276;2022-07-18T08:10:15;7.68;;;3.00;;
31978;SDS011;18502;43.574;1.276;2022-07-18T08:12:41;6.50;;;3.33;;
31978;SDS011;18502;43.574;1.276;2022-07-18T08:15:07;5.05;;;2.92;;
31978;SDS011;18502;43.574;1.276;2022-07-18T08:17:33;3.33;;;2.78;;
31978;SDS011;18502;43.574;1.276;2022-07-18T08:19:59;7.03;;;3.72;;
31978;SDS011;18502;43.574;1.276;2022-07-18T08:22:25;4.55;;;3.00;;
31978;SDS011;18502;43.574;1.276;2022-07-18T08:24:51;12.23;;;3.22;;
31978;SDS011;18502;43.574;1.276;2022-07-18T08:27:17;13.15;;;3.58;;
31978;SDS011;18502;43.574;1.276;2022-07-18T08:29:42;5.50;;;2.65;;
31978;SDS011;18502;43.574;1.276;2022-07-18T08:32:08;3.80;;;3.22;;
31978;SDS011;18502;43.574;1.276;2022-07-18T08:34:34;5.25;;;2.85;;
31978;SDS011;18502;43.574;1.276;2022-07-18T08:36:59;7.88;;;2.63;;
31978;SDS011;18502;43.574;1.276;2022-07-18T08:39:25;2.92;;;2.63;;
31978;SDS011;18502;43.574;1.276;2022-07-18T08:41:51;5.28;;;2.70;;
31978;SDS011;18502;43.574;1.276;2022-07-18T08:44:17;10.05;;;2.80;;
31978;SDS011;18502;43.574;1.276;2022-07-18T08:46:47;5.15;;;3.20;;
31978;SDS011;18502;43.574;1.276;2022-07-18T08:49:14;10.90;;;2.70;;
31978;SDS011;18502;43.574;1.276;2022-07-18T08:51:41;7.38;;;2.47;;
31978;SDS011;18502;43.574;1.276;2022-07-18T08:54:07;6.15;;;2.97;;
31978;SDS011;18502;43.574;1.276;2022-07-18T08:56:33;4.05;;;2.85;;
31978;SDS011;18502;43.574;1.276;2022-07-18T08:58:59;5.72;;;2.85;;
31978;SDS011;18502;43.574;1.276;2022-07-18T09:01:27;5.93;;;2.60;;
31978;SDS011;18502;43.574;1.276;2022-07-18T09:03:54;4.88;;;2.40;;
31978;SDS011;18502;43.574;1.276;2022-07-18T09:06:44;4.68;;;2.50;;
31978;SDS011;18502;43.574;1.276;2022-07-18T09:09:12;10.00;;;2.63;;
31978;SDS011;18502;43.574;1.276;2022-07-18T09:14:27;5.75;;;2.63;;
31978;SDS011;18502;43.574;1.276;2022-07-18T09:16:59;7.32;;;2.40;;
31978;SDS011;18502;43.574;1.276;2022-07-18T09:19:30;4.88;;;2.60;;
31978;SDS011;18502;43.574;1.276;2022-07-18T09:22:39;4.70;;;2.88;;
31978;SDS011;18502;43.574;1.276;2022-07-18T09:35:28;6.28;;;2.42;;
31978;SDS011;18502;43.574;1.276;2022-07-18T09:40:34;5.00;;;2.45;;
31978;SDS011;18502;43.574;1.276;2022-07-18T09:43:01;5.45;;;2.88;;
31978;SDS011;18502;43.574;1.276;2022-07-18T09:45:31;6.40;;;3.20;;
31978;SDS011;18502;43.574;1.276;2022-07-18T09:48:03;4.63;;;2.30;;
31978;SDS011;18502;43.574;1.276;2022-07-18T09:50:34;5.38;;;2.60;;
31978;SDS011;18502;43.574;1.276;2022-07-18T09:53:08;5.95;;;2.60;;
31978;SDS011;18502;43.574;1.276;2022-07-18T09:56:06;4.35;;;2.70;;
31978;SDS011;18502;43.574;1.276;2022-07-18T09:58:38;5.43;;;2.55;;
31978;SDS011;18502;43.574;1.276;2022-07-18T10:01:14;9.43;;;2.97;;
31978;SDS011;18502;43.574;1.276;2022-07-18T10:03:41;7.95;;;2.47;;
31978;SDS011;18502;43.574;1.276;2022-07-18T10:06:07;6.15;;;3.33;;
31978;SDS011;18502;43.574;1.276;2022-07-18T10:08:34;7.50;;;2.95;;
31978;SDS011;18502;43.574;1.276;2022-07-18T10:11:01;6.03;;;2.28;;
31978;SDS011;18502;43.574;1.276;2022-07-18T10:13:28;5.55;;;2.35;;
31978;SDS011;18502;43.574;1.276;2022-07-18T10:15:55;3.75;;;2.88;;
31978;SDS011;18502;43.574;1.276;2022-07-18T10:18:22;6.28;;;3.00;;
31978;SDS011;18502;43.574;1.276;2022-07-18T10:20:53;4.15;;;2.20;;
31978;SDS011;18502;43.574;1.276;2022-07-18T10:23:41;5.85;;;2.90;;
31978;SDS011;18502;43.574;1.276;2022-07-18T10:26:19;5.95;;;2.40;;
31978;SDS011;18502;43.574;1.276;2022-07-18T10:31:25;7.30;;;2.35;;
31978;SDS011;18502;43.574;1.276;2022-07-18T10:36:36;3.70;;;2.70;;
31978;SDS011;18502;43.574;1.276;2022-07-18T10:39:16;6.63;;;2.50;;
31978;SDS011;18502;43.574;1.276;2022-07-18T10:47:04;6.78;;;2.15;;
31978;SDS011;18502;43.574;1.276;2022-07-18T11:00:16;5.72;;;2.50;;
31978;SDS011;18502;43.574;1.276;2022-07-18T11:03:10;3.55;;;2.70;;
31978;SDS011;18502;43.574;1.276;2022-07-18T11:05:42;4.28;;;2.55;;
31978;SDS011;18502;43.574;1.276;2022-07-18T11:15:57;3.63;;;2.90;;
31978;SDS011;18502;43.574;1.276;2022-07-18T11:18:33;4.25;;;2.97;;
31978;SDS011;18502;43.574;1.276;2022-07-18T11:23:47;6.15;;;2.80;;
31978;SDS011;18502;43.574;1.276;2022-07-18T11:26:15;8.55;;;2.70;;
31978;SDS011;18502;43.574;1.276;2022-07-18T11:28:46;6.82;;;2.53;;
31978;SDS011;18502;43.574;1.276;2022-07-18T11:31:15;5.05;;;2.88;;
31978;SDS011;18502;43.574;1.276;2022-07-18T11:33:43;4.95;;;3.38;;
31978;SDS011;18502;43.574;1.276;2022-07-18T11:36:12;5.63;;;3.20;;
31978;SDS011;18502;43.574;1.276;2022-07-18T11:38:47;7.63;;;3.10;;
31978;SDS011;18502;43.574;1.276;2022-07-18T11:41:13;12.50;;;3.10;;
31978;SDS011;18502;43.574;1.276;2022-07-18T11:43:39;7.40;;;3.15;;
31978;SDS011;18502;43.574;1.276;2022-07-18T11:46:09;8.18;;;3.15;;
31978;SDS011;18502;43.574;1.276;2022-07-18T11:48:36;10.13;;;3.00;;
31978;SDS011;18502;43.574;1.276;2022-07-18T11:51:14;7.13;;;2.95;;
31978;SDS011;18502;43.574;1.276;2022-07-18T11:53:44;5.85;;;2.75;;
31978;SDS011;18502;43.574;1.276;2022-07-18T11:56:15;5.38;;;2.83;;
31978;SDS011;18502;43.574;1.276;2022-07-18T11:58:43;6.63;;;3.25;;
31978;SDS011;18502;43.574;1.276;2022-07-18T12:01:10;8.13;;;3.40;;
31978;SDS011;18502;43.574;1.276;2022-07-18T12:03:36;6.75;;;3.10;;
31978;SDS011;18502;43.574;1.276;2022-07-18T12:08:50;7.93;;;3.05;;
31978;SDS011;18502;43.574;1.276;2022-07-18T12:11:27;8.52;;;2.83;;
31978;SDS011;18502;43.574;1.276;2022-07-18T12:13:57;4.30;;;2.70;;
31978;SDS011;18502;43.574;1.276;2022-07-18T12:16:36;4.57;;;2.58;;
31978;SDS011;18502;43.574;1.276;2022-07-18T12:27:22;6.32;;;2.85;;
31978;SDS011;18502;43.574;1.276;2022-07-18T12:32:39;6.97;;;3.40;;
31978;SDS011;18502;43.574;1.276;2022-07-18T12:35:10;7.22;;;3.45;;
31978;SDS011;18502;43.574;1.276;2022-07-18T12:37:41;8.35;;;3.15;;
31978;SDS011;18502;43.574;1.276;2022-07-18T12:40:15;6.05;;;3.17;;
31978;SDS011;18502;43.574;1.276;2022-07-18T12:42:41;4.65;;;3.22;;
31978;SDS011;18502;43.574;1.276;2022-07-18T12:45:10;5.50;;;3.22;;
31978;SDS011;18502;43.574;1.276;2022-07-18T12:47:37;3.15;;;2.78;;
31978;SDS011;18502;43.574;1.276;2022-07-18T12:50:03;5.13;;;3.00;;
31978;SDS011;18502;43.574;1.276;2022-07-18T12:52:32;5.03;;;2.83;;
31978;SDS011;18502;43.574;1.276;2022-07-18T12:54:58;3.95;;;3.00;;
31978;SDS011;18502;43.574;1.276;2022-07-18T12:57:24;5.85;;;2.63;;
31978;SDS011;18502;43.574;1.276;2022-07-18T12:59:50;3.25;;;2.72;;
31978;SDS011;18502;43.574;1.276;2022-07-18T13:02:17;6.53;;;2.83;;
31978;SDS011;18502;43.574;1.276;2022-07-18T13:04:42;8.20;;;3.20;;
31978;SDS011;18502;43.574;1.276;2022-07-18T13:07:09;7.40;;;3.17;;
31978;SDS011;18502;43.574;1.276;2022-07-18T13:09:35;6.93;;;3.28;;
31978;SDS011;18502;43.574;1.276;2022-07-18T13:12:01;6.22;;;2.70;;
31978;SDS011;18502;43.574;1.276;2022-07-18T13:14:27;6.85;;;3.33;;
31978;SDS011;18502;43.574;1.276;2022-07-18T13:16:53;8.48;;;3.00;;
31978;SDS011;18502;43.574;1.276;2022-07-18T13:19:19;6.57;;;2.67;;
31978;SDS011;18502;43.574;1.276;2022-07-18T13:21:45;4.50;;;2.63;;
31978;SDS011;18502;43.574;1.276;2022-07-18T13:24:12;7.00;;;3.10;;
31978;SDS011;18502;43.574;1.276;2022-07-18T13:26:39;5.90;;;3.00;;
31978;SDS011;18502;43.574;1.276;2022-07-18T13:29:06;8.82;;;3.58;;
31978;SDS011;18502;43.574;1.276;2022-07-18T13:31:32;4.05;;;2.67;;
31978;SDS011;18502;43.574;1.276;2022-07-18T13:33:58;7.10;;;3.10;;
31978;SDS011;18502;43.574;1.276;2022-07-18T13:36:24;4.60;;;2.90;;
31978;SDS011;18502;43.574;1.276;2022-07-18T13:38:50;4.50;;;2.70;;
31978;SDS011;18502;43.574;1.276;2022-07-18T13:41:16;3.28;;;2.97;;
31978;SDS011;18502;43.574;1.276;2022-07-18T13:43:41;7.78;;;3.20;;
31978;SDS011;18502;43.574;1.276;2022-07-18T13:46:07;5.10;;;3.15;;
31978;SDS011;18502;43.574;1.276;2022-07-18T13:48:37;4.97;;;2.97;;
31978;SDS011;18502;43.574;1.276;2022-07-18T13:51:04;5.93;;;3.35;;
31978;SDS011;18502;43.574;1.276;2022-07-18T13:53:30;6.78;;;3.53;;
31978;SDS011;18502;43.574;1.276;2022-07-18T13:55:56;8.90;;;3.15;;
31978;SDS011;18502;43.574;1.276;2022-07-18T13:58:22;6.70;;;3.58;;
31978;SDS011;18502;43.574;1.276;2022-07-18T14:00:48;4.65;;;2.92;;
31978;SDS011;18502;43.574;1.276;2022-07-18T14:03:14;4.78;;;2.80;;
31978;SDS011;18502;43.574;1.276;2022-07-18T14:05:40;4.53;;;3.20;;
31978;SDS011;18502;43.574;1.276;2022-07-18T14:08:06;5.05;;;3.00;;
31978;SDS011;18502;43.574;1.276;2022-07-18T14:10:32;3.10;;;2.80;;
31978;SDS011;18502;43.574;1.276;2022-07-18T14:12:58;7.63;;;2.88;;
31978;SDS011;18502;43.574;1.276;2022-07-18T14:15:25;6.35;;;2.88;;
31978;SDS011;18502;43.574;1.276;2022-07-18T14:17:50;7.90;;;3.35;;
31978;SDS011;18502;43.574;1.276;2022-07-18T14:20:16;8.88;;;3.20;;
31978;SDS011;18502;43.574;1.276;2022-07-18T14:22:42;4.75;;;2.80;;
31978;SDS011;18502;43.574;1.276;2022-07-18T14:25:10;4.90;;;3.40;;
31978;SDS011;18502;43.574;1.276;2022-07-18T14:27:37;7.47;;;3.10;;
31978;SDS011;18502;43.574;1.276;2022-07-18T14:30:04;4.93;;;3.00;;
31978;SDS011;18502;43.574;1.276;2022-07-18T14:34:57;6.50;;;3.45;;
31978;SDS011;18502;43.574;1.276;2022-07-18T14:37:23;4.47;;;3.50;;
31978;SDS011;18502;43.574;1.276;2022-07-18T14:39:49;4.78;;;2.83;;
31978;SDS011;18502;43.574;1.276;2022-07-18T14:42:14;4.88;;;2.97;;
31978;SDS011;18502;43.574;1.276;2022-07-18T14:44:40;3.15;;;2.75;;
31978;SDS011;18502;43.574;1.276;2022-07-18T14:47:06;5.10;;;2.80;;
31978;SDS011;18502;43.574;1.276;2022-07-18T14:49:31;4.93;;;3.03;;
31978;SDS011;18502;43.574;1.276;2022-07-18T14:51:57;6.10;;;3.40;;
31978;SDS011;18502;43.574;1.276;2022-07-18T14:56:51;5.82;;;2.90;;
31978;SDS011;18502;43.574;1.276;2022-07-18T14:59:17;5.72;;;2.92;;
31978;SDS011;18502;43.574;1.276;2022-07-18T15:01:43;7.25;;;3.40;;
31978;SDS011;18502;43.574;1.276;2022-07-18T15:04:09;3.90;;;3.00;;
31978;SDS011;18502;43.574;1.276;2022-07-18T15:06:35;4.45;;;2.65;;
31978;SDS011;18502;43.574;1.276;2022-07-18T15:09:00;5.03;;;2.90;;
31978;SDS011;18502;43.574;1.276;2022-07-18T15:11:26;8.40;;;3.55;;
31978;SDS011;18502;43.574;1.276;2022-07-18T15:13:52;3.92;;;3.08;;
31978;SDS011;18502;43.574;1.276;2022-07-18T15:16:18;7.85;;;3.55;;
31978;SDS011;18502;43.574;1.276;2022-07-18T15:18:43;4.95;;;2.92;;
31978;SDS011;18502;43.574;1.276;2022-07-18T15:21:09;6.78;;;2.47;;
31978;SDS011;18502;43.574;1.276;2022-07-18T15:23:35;7.90;;;3.03;;
31978;SDS011;18502;43.574;1.276;2022-07-18T15:26:00;5.15;;;3.10;;
31978;SDS011;18502;43.574;1.276;2022-07-18T15:28:26;4.07;;;2.92;;
31978;SDS011;18502;43.574;1.276;2022-07-18T15:30:52;7.50;;;3.20;;
31978;SDS011;18502;43.574;1.276;2022-07-18T15:33:18;6.05;;;3.10;;
31978;SDS011;18502;43.574;1.276;2022-07-18T15:35:44;3.45;;;3.05;;
31978;SDS011;18502;43.574;1.276;2022-07-18T15:38:09;3.83;;;2.92;;
31978;SDS011;18502;43.574;1.276;2022-07-18T15:40:35;4.65;;;3.10;;
31978;SDS011;18502;43.574;1.276;2022-07-18T15:43:01;9.02;;;2.95;;
31978;SDS011;18502;43.574;1.276;2022-07-18T15:45:28;3.85;;;2.95;;
31978;SDS011;18502;43.574;1.276;2022-07-18T15:47:54;5.43;;;3.25;;
31978;SDS011;18502;43.574;1.276;2022-07-18T15:50:20;4.50;;;3.00;;
31978;SDS011;18502;43.574;1.276;2022-07-18T15:52:47;5.93;;;2.73;;
31978;SDS011;18502;43.574;1.276;2022-07-18T15:55:13;4.40;;;2.88;;